Terminal Aerodrome Forecast
Issued by NWS

Home | Current Version | Previous Version | Text Only | Print | Product List | Glossary On
Versions: 1 2 3 4 5 6 7 8 9 10 11 12 13 14 15 16 17 18 19 20 21 22 23 24 25 26 27 28 29 30 31
000
FTUS44 KLZK 250750 AAA
TAFADF
TAF AMD
KADF 250750Z 2508/2606 34006KT P6SM FEW250
      TEMPO 2510/2514 2SM BR
     FM251400 09009KT P6SM SCT250
     FM251800 12006KT P6SM BKN250
     FM260100 VRB03KT P6SM SCT250=

USA.gov is the U.S. government's official web portal to all federal, state and local government web resources and services.